sensor_id;sensor_type;location;lat;lon;timestamp;P1;durP1;ratioP1;P2;durP2;ratioP2
55455;SDS011;63021;52.836;6.376;2023-07-13T00:00:33;11.80;;;2.78;;
55455;SDS011;63021;52.836;6.376;2023-07-13T00:02:58;10.88;;;2.63;;
55455;SDS011;63021;52.836;6.376;2023-07-13T00:05:24;6.25;;;2.35;;
55455;SDS011;63021;52.836;6.376;2023-07-13T00:07:50;17.25;;;3.35;;
55455;SDS011;63021;52.836;6.376;2023-07-13T00:10:16;9.23;;;2.67;;
55455;SDS011;63021;52.836;6.376;2023-07-13T00:12:42;12.52;;;3.00;;
55455;SDS011;63021;52.836;6.376;2023-07-13T00:15:15;14.60;;;2.80;;
55455;SDS011;63021;52.836;6.376;2023-07-13T00:17:48;14.05;;;2.63;;
55455;SDS011;63021;52.836;6.376;2023-07-13T00:20:14;15.45;;;2.78;;
55455;SDS011;63021;52.836;6.376;2023-07-13T00:22:40;12.60;;;3.00;;
55455;SDS011;63021;52.836;6.376;2023-07-13T00:25:05;16.27;;;3.33;;
55455;SDS011;63021;52.836;6.376;2023-07-13T00:27:31;12.75;;;2.88;;
55455;SDS011;63021;52.836;6.376;2023-07-13T00:29:57;14.15;;;3.22;;
55455;SDS011;63021;52.836;6.376;2023-07-13T00:32:23;17.90;;;3.20;;
55455;SDS011;63021;52.836;6.376;2023-07-13T00:34:50;11.82;;;3.47;;
55455;SDS011;63021;52.836;6.376;2023-07-13T00:37:16;14.55;;;3.10;;
55455;SDS011;63021;52.836;6.376;2023-07-13T00:39:42;10.57;;;2.55;;
55455;SDS011;63021;52.836;6.376;2023-07-13T00:42:07;9.82;;;2.38;;
55455;SDS011;63021;52.836;6.376;2023-07-13T00:44:32;11.50;;;2.80;;
55455;SDS011;63021;52.836;6.376;2023-07-13T00:46:58;13.05;;;4.05;;
55455;SDS011;63021;52.836;6.376;2023-07-13T00:49:24;10.32;;;2.28;;
55455;SDS011;63021;52.836;6.376;2023-07-13T00:52:01;9.52;;;2.88;;
55455;SDS011;63021;52.836;6.376;2023-07-13T00:54:39;12.65;;;2.67;;
55455;SDS011;63021;52.836;6.376;2023-07-13T00:57:10;12.73;;;2.95;;
55455;SDS011;63021;52.836;6.376;2023-07-13T00:59:39;11.77;;;2.47;;
55455;SDS011;63021;52.836;6.376;2023-07-13T01:02:07;11.10;;;2.70;;
55455;SDS011;63021;52.836;6.376;2023-07-13T01:04:33;11.90;;;2.90;;
55455;SDS011;63021;52.836;6.376;2023-07-13T01:06:58;15.80;;;3.28;;
55455;SDS011;63021;52.836;6.376;2023-07-13T01:09:25;18.67;;;3.42;;
55455;SDS011;63021;52.836;6.376;2023-07-13T01:11:51;13.05;;;3.10;;
55455;SDS011;63021;52.836;6.376;2023-07-13T01:14:16;10.98;;;2.50;;
55455;SDS011;63021;52.836;6.376;2023-07-13T01:16:42;12.52;;;2.42;;
55455;SDS011;63021;52.836;6.376;2023-07-13T01:19:33;8.35;;;2.60;;
55455;SDS011;63021;52.836;6.376;2023-07-13T01:24:41;11.10;;;2.47;;
55455;SDS011;63021;52.836;6.376;2023-07-13T01:27:08;11.98;;;3.92;;
55455;SDS011;63021;52.836;6.376;2023-07-13T01:29:36;15.77;;;2.67;;
55455;SDS011;63021;52.836;6.376;2023-07-13T01:32:11;14.80;;;3.25;;
55455;SDS011;63021;52.836;6.376;2023-07-13T01:34:38;13.30;;;3.00;;
55455;SDS011;63021;52.836;6.376;2023-07-13T01:37:07;16.02;;;4.20;;
55455;SDS011;63021;52.836;6.376;2023-07-13T01:39:33;8.85;;;3.50;;
55455;SDS011;63021;52.836;6.376;2023-07-13T01:41:59;11.90;;;2.70;;
55455;SDS011;63021;52.836;6.376;2023-07-13T01:44:25;7.10;;;2.53;;
55455;SDS011;63021;52.836;6.376;2023-07-13T01:46:50;10.73;;;2.67;;
55455;SDS011;63021;52.836;6.376;2023-07-13T01:49:16;6.47;;;2.25;;
55455;SDS011;63021;52.836;6.376;2023-07-13T01:51:41;8.77;;;2.55;;
55455;SDS011;63021;52.836;6.376;2023-07-13T01:54:07;13.77;;;3.08;;
55455;SDS011;63021;52.836;6.376;2023-07-13T01:56:32;7.88;;;2.85;;
55455;SDS011;63021;52.836;6.376;2023-07-13T01:58:58;9.70;;;3.47;;
55455;SDS011;63021;52.836;6.376;2023-07-13T02:01:23;10.27;;;3.60;;
55455;SDS011;63021;52.836;6.376;2023-07-13T02:03:48;14.68;;;3.35;;
55455;SDS011;63021;52.836;6.376;2023-07-13T02:06:14;15.15;;;2.83;;
55455;SDS011;63021;52.836;6.376;2023-07-13T02:08:40;11.13;;;2.80;;
55455;SDS011;63021;52.836;6.376;2023-07-13T02:11:09;10.43;;;2.75;;
55455;SDS011;63021;52.836;6.376;2023-07-13T02:13:35;13.15;;;3.47;;
55455;SDS011;63021;52.836;6.376;2023-07-13T02:16:00;13.23;;;2.88;;
55455;SDS011;63021;52.836;6.376;2023-07-13T02:18:26;11.50;;;2.83;;
55455;SDS011;63021;52.836;6.376;2023-07-13T02:20:51;12.38;;;3.00;;
55455;SDS011;63021;52.836;6.376;2023-07-13T02:23:17;17.42;;;4.28;;
55455;SDS011;63021;52.836;6.376;2023-07-13T02:25:42;11.02;;;3.22;;
55455;SDS011;63021;52.836;6.376;2023-07-13T02:28:08;13.98;;;3.58;;
55455;SDS011;63021;52.836;6.376;2023-07-13T02:30:33;13.45;;;4.03;;
55455;SDS011;63021;52.836;6.376;2023-07-13T02:33:00;10.05;;;2.63;;
55455;SDS011;63021;52.836;6.376;2023-07-13T02:35:25;18.02;;;4.10;;
55455;SDS011;63021;52.836;6.376;2023-07-13T02:37:51;12.40;;;3.17;;
55455;SDS011;63021;52.836;6.376;2023-07-13T02:40:17;11.38;;;3.25;;
55455;SDS011;63021;52.836;6.376;2023-07-13T02:42:42;13.77;;;3.15;;
55455;SDS011;63021;52.836;6.376;2023-07-13T02:45:08;9.80;;;3.00;;
55455;SDS011;63021;52.836;6.376;2023-07-13T02:47:34;15.23;;;3.25;;
55455;SDS011;63021;52.836;6.376;2023-07-13T02:50:01;14.98;;;3.95;;
55455;SDS011;63021;52.836;6.376;2023-07-13T02:52:27;18.52;;;3.50;;
55455;SDS011;63021;52.836;6.376;2023-07-13T02:54:52;10.52;;;3.20;;
55455;SDS011;63021;52.836;6.376;2023-07-13T02:57:18;11.50;;;3.42;;
55455;SDS011;63021;52.836;6.376;2023-07-13T02:59:43;16.95;;;4.15;;
55455;SDS011;63021;52.836;6.376;2023-07-13T03:02:09;13.93;;;3.05;;
55455;SDS011;63021;52.836;6.376;2023-07-13T03:04:35;13.40;;;3.40;;
55455;SDS011;63021;52.836;6.376;2023-07-13T03:07:01;10.93;;;2.80;;
55455;SDS011;63021;52.836;6.376;2023-07-13T03:09:27;12.05;;;3.22;;
55455;SDS011;63021;52.836;6.376;2023-07-13T03:11:53;13.05;;;3.80;;
55455;SDS011;63021;52.836;6.376;2023-07-13T03:14:19;9.98;;;3.05;;
55455;SDS011;63021;52.836;6.376;2023-07-13T03:16:45;13.50;;;3.70;;
55455;SDS011;63021;52.836;6.376;2023-07-13T03:19:13;7.97;;;3.15;;
55455;SDS011;63021;52.836;6.376;2023-07-13T03:21:39;14.70;;;4.75;;
55455;SDS011;63021;52.836;6.376;2023-07-13T03:24:04;15.55;;;3.50;;
55455;SDS011;63021;52.836;6.376;2023-07-13T03:26:30;11.93;;;3.33;;
55455;SDS011;63021;52.836;6.376;2023-07-13T03:28:55;12.80;;;3.20;;
55455;SDS011;63021;52.836;6.376;2023-07-13T03:31:21;15.93;;;3.80;;
55455;SDS011;63021;52.836;6.376;2023-07-13T03:33:48;12.85;;;3.50;;
55455;SDS011;63021;52.836;6.376;2023-07-13T03:36:15;8.73;;;2.65;;
55455;SDS011;63021;52.836;6.376;2023-07-13T03:38:50;14.70;;;4.13;;
55455;SDS011;63021;52.836;6.376;2023-07-13T03:41:18;14.07;;;3.20;;
55455;SDS011;63021;52.836;6.376;2023-07-13T03:43:43;11.15;;;3.35;;
55455;SDS011;63021;52.836;6.376;2023-07-13T03:46:09;14.25;;;4.20;;
55455;SDS011;63021;52.836;6.376;2023-07-13T03:48:35;16.95;;;4.30;;
55455;SDS011;63021;52.836;6.376;2023-07-13T03:51:00;12.93;;;3.70;;
55455;SDS011;63021;52.836;6.376;2023-07-13T03:53:26;12.60;;;2.97;;
55455;SDS011;63021;52.836;6.376;2023-07-13T03:55:52;10.05;;;3.83;;
55455;SDS011;63021;52.836;6.376;2023-07-13T04:00:48;10.90;;;4.00;;
55455;SDS011;63021;52.836;6.376;2023-07-13T04:03:15;8.38;;;3.30;;
55455;SDS011;63021;52.836;6.376;2023-07-13T04:05:41;12.82;;;4.57;;
55455;SDS011;63021;52.836;6.376;2023-07-13T04:08:07;11.70;;;3.10;;
55455;SDS011;63021;52.836;6.376;2023-07-13T04:10:32;14.18;;;3.42;;
55455;SDS011;63021;52.836;6.376;2023-07-13T04:12:58;14.32;;;3.60;;
55455;SDS011;63021;52.836;6.376;2023-07-13T04:15:23;14.80;;;3.60;;
55455;SDS011;63021;52.836;6.376;2023-07-13T04:17:49;9.98;;;3.85;;
55455;SDS011;63021;52.836;6.376;2023-07-13T04:20:14;9.90;;;3.88;;
55455;SDS011;63021;52.836;6.376;2023-07-13T04:22:39;15.63;;;4.20;;
55455;SDS011;63021;52.836;6.376;2023-07-13T04:25:05;12.63;;;3.55;;
55455;SDS011;63021;52.836;6.376;2023-07-13T04:27:31;11.93;;;3.55;;
55455;SDS011;63021;52.836;6.376;2023-07-13T04:29:56;14.35;;;3.45;;
55455;SDS011;63021;52.836;6.376;2023-07-13T04:32:21;14.27;;;5.20;;
55455;SDS011;63021;52.836;6.376;2023-07-13T04:34:47;13.60;;;3.95;;
55455;SDS011;63021;52.836;6.376;2023-07-13T04:37:13;13.77;;;3.42;;
55455;SDS011;63021;52.836;6.376;2023-07-13T04:39:39;13.35;;;3.53;;
55455;SDS011;63021;52.836;6.376;2023-07-13T04:42:04;9.88;;;3.35;;
55455;SDS011;63021;52.836;6.376;2023-07-13T04:44:30;19.85;;;4.45;;
55455;SDS011;63021;52.836;6.376;2023-07-13T04:46:55;11.48;;;4.57;;
55455;SDS011;63021;52.836;6.376;2023-07-13T04:49:21;13.07;;;3.92;;
55455;SDS011;63021;52.836;6.376;2023-07-13T04:51:46;14.77;;;4.28;;
55455;SDS011;63021;52.836;6.376;2023-07-13T04:54:12;10.90;;;3.28;;
55455;SDS011;63021;52.836;6.376;2023-07-13T04:56:37;10.55;;;3.63;;
55455;SDS011;63021;52.836;6.376;2023-07-13T04:59:03;9.25;;;3.00;;
55455;SDS011;63021;52.836;6.376;2023-07-13T05:01:28;12.88;;;3.80;;
55455;SDS011;63021;52.836;6.376;2023-07-13T05:03:54;14.70;;;4.15;;
55455;SDS011;63021;52.836;6.376;2023-07-13T05:06:22;13.68;;;3.67;;
55455;SDS011;63021;52.836;6.376;2023-07-13T05:08:48;12.55;;;3.90;;
55455;SDS011;63021;52.836;6.376;2023-07-13T05:11:13;12.68;;;4.25;;
55455;SDS011;63021;52.836;6.376;2023-07-13T05:13:38;9.25;;;3.45;;
55455;SDS011;63021;52.836;6.376;2023-07-13T05:16:04;14.05;;;4.72;;
55455;SDS011;63021;52.836;6.376;2023-07-13T05:18:32;6.15;;;2.67;;
55455;SDS011;63021;52.836;6.376;2023-07-13T05:20:58;9.75;;;3.53;;
55455;SDS011;63021;52.836;6.376;2023-07-13T05:23:29;10.27;;;3.75;;
55455;SDS011;63021;52.836;6.376;2023-07-13T05:25:55;13.20;;;3.83;;
55455;SDS011;63021;52.836;6.376;2023-07-13T05:28:21;11.30;;;3.92;;
55455;SDS011;63021;52.836;6.376;2023-07-13T05:30:48;14.00;;;3.85;;
55455;SDS011;63021;52.836;6.376;2023-07-13T05:33:14;19.58;;;4.30;;
55455;SDS011;63021;52.836;6.376;2023-07-13T05:35:39;12.07;;;5.13;;
55455;SDS011;63021;52.836;6.376;2023-07-13T05:38:05;13.15;;;4.00;;
55455;SDS011;63021;52.836;6.376;2023-07-13T05:40:30;12.65;;;3.67;;
55455;SDS011;63021;52.836;6.376;2023-07-13T05:42:56;14.32;;;4.00;;
55455;SDS011;63021;52.836;6.376;2023-07-13T05:45:21;16.88;;;4.00;;
55455;SDS011;63021;52.836;6.376;2023-07-13T05:47:47;9.25;;;3.97;;
55455;SDS011;63021;52.836;6.376;2023-07-13T05:50:12;10.35;;;3.95;;
55455;SDS011;63021;52.836;6.376;2023-07-13T05:52:37;14.13;;;4.32;;
55455;SDS011;63021;52.836;6.376;2023-07-13T05:55:03;14.52;;;4.45;;
55455;SDS011;63021;52.836;6.376;2023-07-13T05:57:29;11.55;;;4.03;;
55455;SDS011;63021;52.836;6.376;2023-07-13T05:59:55;8.90;;;4.53;;
55455;SDS011;63021;52.836;6.376;2023-07-13T06:02:21;13.50;;;3.80;;
55455;SDS011;63021;52.836;6.376;2023-07-13T06:04:46;12.68;;;3.67;;
55455;SDS011;63021;52.836;6.376;2023-07-13T06:07:11;11.60;;;3.40;;
55455;SDS011;63021;52.836;6.376;2023-07-13T06:09:37;17.42;;;3.40;;
55455;SDS011;63021;52.836;6.376;2023-07-13T06:12:03;14.45;;;3.90;;
55455;SDS011;63021;52.836;6.376;2023-07-13T06:14:29;10.60;;;3.85;;
55455;SDS011;63021;52.836;6.376;2023-07-13T06:16:55;10.32;;;3.90;;
55455;SDS011;63021;52.836;6.376;2023-07-13T06:19:20;8.98;;;3.08;;
55455;SDS011;63021;52.836;6.376;2023-07-13T06:21:45;12.07;;;3.10;;
55455;SDS011;63021;52.836;6.376;2023-07-13T06:24:11;5.90;;;3.17;;
55455;SDS011;63021;52.836;6.376;2023-07-13T06:26:37;15.75;;;3.65;;
55455;SDS011;63021;52.836;6.376;2023-07-13T06:29:02;7.75;;;3.30;;
55455;SDS011;63021;52.836;6.376;2023-07-13T06:31:27;7.90;;;3.22;;
55455;SDS011;63021;52.836;6.376;2023-07-13T06:33:53;9.68;;;3.10;;
55455;SDS011;63021;52.836;6.376;2023-07-13T06:36:18;8.93;;;3.28;;
55455;SDS011;63021;52.836;6.376;2023-07-13T06:38:44;19.00;;;3.40;;
55455;SDS011;63021;52.836;6.376;2023-07-13T06:41:09;6.40;;;2.63;;
55455;SDS011;63021;52.836;6.376;2023-07-13T06:43:35;9.57;;;3.95;;
55455;SDS011;63021;52.836;6.376;2023-07-13T06:46:00;8.98;;;3.25;;
55455;SDS011;63021;52.836;6.376;2023-07-13T06:48:26;12.75;;;3.88;;
55455;SDS011;63021;52.836;6.376;2023-07-13T06:50:53;13.13;;;4.25;;
55455;SDS011;63021;52.836;6.376;2023-07-13T06:53:19;16.13;;;4.68;;
55455;SDS011;63021;52.836;6.376;2023-07-13T06:55:45;9.23;;;3.20;;
55455;SDS011;63021;52.836;6.376;2023-07-13T06:58:11;9.73;;;3.35;;
55455;SDS011;63021;52.836;6.376;2023-07-13T07:00:37;7.07;;;2.47;;
55455;SDS011;63021;52.836;6.376;2023-07-13T07:03:02;8.73;;;2.50;;
55455;SDS011;63021;52.836;6.376;2023-07-13T07:05:28;7.40;;;2.65;;
55455;SDS011;63021;52.836;6.376;2023-07-13T07:07:54;9.23;;;3.25;;
55455;SDS011;63021;52.836;6.376;2023-07-13T07:10:20;16.55;;;3.92;;
55455;SDS011;63021;52.836;6.376;2023-07-13T07:12:45;11.07;;;3.03;;
55455;SDS011;63021;52.836;6.376;2023-07-13T07:15:11;12.10;;;3.30;;
55455;SDS011;63021;52.836;6.376;2023-07-13T07:17:37;8.75;;;3.28;;
55455;SDS011;63021;52.836;6.376;2023-07-13T07:20:03;12.13;;;3.20;;
55455;SDS011;63021;52.836;6.376;2023-07-13T07:22:29;8.48;;;2.60;;
55455;SDS011;63021;52.836;6.376;2023-07-13T07:24:55;7.90;;;2.63;;
55455;SDS011;63021;52.836;6.376;2023-07-13T07:27:22;11.18;;;2.72;;
55455;SDS011;63021;52.836;6.376;2023-07-13T07:29:48;7.88;;;3.10;;
55455;SDS011;63021;52.836;6.376;2023-07-13T07:32:13;11.07;;;3.17;;
55455;SDS011;63021;52.836;6.376;2023-07-13T07:34:39;8.95;;;3.53;;
55455;SDS011;63021;52.836;6.376;2023-07-13T07:37:04;11.23;;;4.32;;
55455;SDS011;63021;52.836;6.376;2023-07-13T07:39:30;13.18;;;3.45;;
55455;SDS011;63021;52.836;6.376;2023-07-13T07:41:56;11.80;;;3.80;;
55455;SDS011;63021;52.836;6.376;2023-07-13T07:44:22;9.63;;;3.20;;
55455;SDS011;63021;52.836;6.376;2023-07-13T07:46:47;14.07;;;3.70;;
55455;SDS011;63021;52.836;6.376;2023-07-13T07:49:13;14.10;;;3.67;;
55455;SDS011;63021;52.836;6.376;2023-07-13T07:51:39;12.23;;;4.05;;
55455;SDS011;63021;52.836;6.376;2023-07-13T07:54:05;11.23;;;3.55;;
55455;SDS011;63021;52.836;6.376;2023-07-13T07:56:31;9.32;;;3.30;;
55455;SDS011;63021;52.836;6.376;2023-07-13T07:58:56;15.25;;;4.20;;
55455;SDS011;63021;52.836;6.376;2023-07-13T08:01:22;13.95;;;3.47;;
55455;SDS011;63021;52.836;6.376;2023-07-13T08:03:48;12.32;;;4.38;;
55455;SDS011;63021;52.836;6.376;2023-07-13T08:06:14;16.67;;;4.32;;
55455;SDS011;63021;52.836;6.376;2023-07-13T08:08:40;14.98;;;3.67;;
55455;SDS011;63021;52.836;6.376;2023-07-13T08:11:06;14.65;;;4.18;;
55455;SDS011;63021;52.836;6.376;2023-07-13T08:13:33;13.48;;;5.40;;
55455;SDS011;63021;52.836;6.376;2023-07-13T08:15:59;16.85;;;4.25;;
55455;SDS011;63021;52.836;6.376;2023-07-13T08:18:24;13.50;;;4.30;;
55455;SDS011;63021;52.836;6.376;2023-07-13T08:20:50;13.80;;;4.63;;
55455;SDS011;63021;52.836;6.376;2023-07-13T08:23:15;9.02;;;3.88;;
55455;SDS011;63021;52.836;6.376;2023-07-13T08:25:42;5.60;;;3.15;;
55455;SDS011;63021;52.836;6.376;2023-07-13T08:28:07;6.53;;;2.88;;
55455;SDS011;63021;52.836;6.376;2023-07-13T08:30:33;9.18;;;3.30;;
55455;SDS011;63021;52.836;6.376;2023-07-13T08:32:58;11.18;;;3.85;;
55455;SDS011;63021;52.836;6.376;2023-07-13T08:35:24;9.90;;;3.50;;
55455;SDS011;63021;52.836;6.376;2023-07-13T08:37:51;9.73;;;3.47;;
55455;SDS011;63021;52.836;6.376;2023-07-13T08:40:16;10.95;;;3.10;;
55455;SDS011;63021;52.836;6.376;2023-07-13T08:42:55;7.38;;;3.80;;
55455;SDS011;63021;52.836;6.376;2023-07-13T08:48:01;11.38;;;3.67;;
55455;SDS011;63021;52.836;6.376;2023-07-13T08:50:31;11.43;;;3.75;;
55455;SDS011;63021;52.836;6.376;2023-07-13T08:53:00;10.88;;;4.15;;
55455;SDS011;63021;52.836;6.376;2023-07-13T08:55:30;7.10;;;3.20;;
55455;SDS011;63021;52.836;6.376;2023-07-13T08:58:04;8.20;;;3.65;;
55455;SDS011;63021;52.836;6.376;2023-07-13T09:00:44;11.27;;;4.10;;
55455;SDS011;63021;52.836;6.376;2023-07-13T09:03:46;11.18;;;4.70;;
55455;SDS011;63021;52.836;6.376;2023-07-13T09:06:30;7.97;;;3.53;;
55455;SDS011;63021;52.836;6.376;2023-07-13T09:09:02;9.40;;;3.10;;
55455;SDS011;63021;52.836;6.376;2023-07-13T09:11:43;11.20;;;3.25;;
55455;SDS011;63021;52.836;6.376;2023-07-13T09:14:32;7.43;;;2.88;;
55455;SDS011;63021;52.836;6.376;2023-07-13T09:17:10;3.20;;;2.33;;
55455;SDS011;63021;52.836;6.376;2023-07-13T09:19:39;3.67;;;2.20;;
55455;SDS011;63021;52.836;6.376;2023-07-13T09:22:11;2.50;;;1.70;;
55455;SDS011;63021;52.836;6.376;2023-07-13T09:24:50;2.70;;;1.93;;
55455;SDS011;63021;52.836;6.376;2023-07-13T09:27:22;6.07;;;1.90;;
55455;SDS011;63021;52.836;6.376;2023-07-13T09:32:41;3.13;;;2.05;;
55455;SDS011;63021;52.836;6.376;2023-07-13T09:35:12;3.05;;;1.92;;
55455;SDS011;63021;52.836;6.376;2023-07-13T09:37:43;4.15;;;2.50;;
55455;SDS011;63021;52.836;6.376;2023-07-13T09:40:11;3.15;;;2.20;;
55455;SDS011;63021;52.836;6.376;2023-07-13T09:42:51;5.82;;;2.40;;
55455;SDS011;63021;52.836;6.376;2023-07-13T09:45:29;2.80;;;1.75;;
55455;SDS011;63021;52.836;6.376;2023-07-13T09:48:03;3.13;;;1.73;;
55455;SDS011;63021;52.836;6.376;2023-07-13T09:50:37;6.07;;;2.10;;
55455;SDS011;63021;52.836;6.376;2023-07-13T09:53:03;3.40;;;2.13;;
55455;SDS011;63021;52.836;6.376;2023-07-13T09:55:32;2.85;;;1.83;;
55455;SDS011;63021;52.836;6.376;2023-07-13T09:58:12;4.55;;;2.40;;
55455;SDS011;63021;52.836;6.376;2023-07-13T10:00:43;5.43;;;2.22;;
55455;SDS011;63021;52.836;6.376;2023-07-13T10:03:37;5.88;;;2.33;;
55455;SDS011;63021;52.836;6.376;2023-07-13T10:08:57;7.40;;;3.10;;
55455;SDS011;63021;52.836;6.376;2023-07-13T10:11:27;4.65;;;2.70;;
55455;SDS011;63021;52.836;6.376;2023-07-13T10:13:59;5.32;;;2.85;;
55455;SDS011;63021;52.836;6.376;2023-07-13T10:16:31;5.53;;;3.30;;
55455;SDS011;63021;52.836;6.376;2023-07-13T10:18:59;6.85;;;3.22;;
55455;SDS011;63021;52.836;6.376;2023-07-13T10:21:31;7.25;;;3.40;;
55455;SDS011;63021;52.836;6.376;2023-07-13T10:24:04;7.32;;;3.70;;
55455;SDS011;63021;52.836;6.376;2023-07-13T10:26:38;6.32;;;3.05;;
55455;SDS011;63021;52.836;6.376;2023-07-13T10:29:12;5.82;;;3.60;;
55455;SDS011;63021;52.836;6.376;2023-07-13T10:31:40;9.48;;;3.92;;
55455;SDS011;63021;52.836;6.376;2023-07-13T10:34:10;3.95;;;3.25;;
55455;SDS011;63021;52.836;6.376;2023-07-13T10:36:41;6.03;;;4.28;;
55455;SDS011;63021;52.836;6.376;2023-07-13T10:39:10;7.70;;;3.65;;
55455;SDS011;63021;52.836;6.376;2023-07-13T10:41:49;4.68;;;2.95;;
55455;SDS011;63021;52.836;6.376;2023-07-13T10:44:20;5.47;;;3.35;;
55455;SDS011;63021;52.836;6.376;2023-07-13T10:46:51;8.75;;;3.50;;
55455;SDS011;63021;52.836;6.376;2023-07-13T10:49:19;6.93;;;3.15;;
55455;SDS011;63021;52.836;6.376;2023-07-13T10:51:47;5.65;;;3.05;;
55455;SDS011;63021;52.836;6.376;2023-07-13T10:56:43;8.73;;;3.15;;
55455;SDS011;63021;52.836;6.376;2023-07-13T10:59:17;7.10;;;3.40;;
55455;SDS011;63021;52.836;6.376;2023-07-13T11:01:58;6.78;;;3.08;;
55455;SDS011;63021;52.836;6.376;2023-07-13T11:04:45;10.25;;;3.45;;
55455;SDS011;63021;52.836;6.376;2023-07-13T11:07:22;5.40;;;3.40;;
55455;SDS011;63021;52.836;6.376;2023-07-13T11:09:52;10.02;;;3.75;;
55455;SDS011;63021;52.836;6.376;2023-07-13T11:22:44;5.95;;;2.35;;
55455;SDS011;63021;52.836;6.376;2023-07-13T11:25:33;2.85;;;1.95;;
55455;SDS011;63021;52.836;6.376;2023-07-13T11:30:38;7.53;;;3.85;;
55455;SDS011;63021;52.836;6.376;2023-07-13T11:38:57;5.18;;;3.53;;
55455;SDS011;63021;52.836;6.376;2023-07-13T11:41:32;6.63;;;3.67;;
55455;SDS011;63021;52.836;6.376;2023-07-13T11:44:05;5.88;;;3.97;;
55455;SDS011;63021;52.836;6.376;2023-07-13T11:46:37;9.88;;;3.70;;
55455;SDS011;63021;52.836;6.376;2023-07-13T11:49:04;6.05;;;3.50;;
55455;SDS011;63021;52.836;6.376;2023-07-13T11:51:32;4.88;;;3.08;;
55455;SDS011;63021;52.836;6.376;2023-07-13T11:54:03;6.80;;;3.53;;
55455;SDS011;63021;52.836;6.376;2023-07-13T11:56:30;7.18;;;2.15;;
55455;SDS011;63021;52.836;6.376;2023-07-13T11:58:59;4.90;;;1.90;;
55455;SDS011;63021;52.836;6.376;2023-07-13T12:01:31;6.55;;;1.98;;
55455;SDS011;63021;52.836;6.376;2023-07-13T12:03:58;10.00;;;3.40;;
55455;SDS011;63021;52.836;6.376;2023-07-13T12:06:33;4.93;;;1.80;;
55455;SDS011;63021;52.836;6.376;2023-07-13T12:09:10;6.70;;;1.85;;
55455;SDS011;63021;52.836;6.376;2023-07-13T12:11:50;4.53;;;1.73;;
55455;SDS011;63021;52.836;6.376;2023-07-13T12:14:16;5.65;;;2.03;;
55455;SDS011;63021;52.836;6.376;2023-07-13T12:16:43;5.57;;;1.63;;
55455;SDS011;63021;52.836;6.376;2023-07-13T12:19:31;4.15;;;1.60;;
55455;SDS011;63021;52.836;6.376;2023-07-13T12:21:58;5.78;;;1.33;;
55455;SDS011;63021;52.836;6.376;2023-07-13T12:24:25;5.40;;;1.27;;
55455;SDS011;63021;52.836;6.376;2023-07-13T12:26:58;3.58;;;1.38;;
55455;SDS011;63021;52.836;6.376;2023-07-13T12:29:29;4.28;;;1.25;;
55455;SDS011;63021;52.836;6.376;2023-07-13T12:31:57;3.38;;;1.35;;
55455;SDS011;63021;52.836;6.376;2023-07-13T12:34:25;5.72;;;1.40;;
55455;SDS011;63021;52.836;6.376;2023-07-13T12:36:52;3.38;;;1.17;;
55455;SDS011;63021;52.836;6.376;2023-07-13T12:42:27;2.65;;;1.63;;
55455;SDS011;63021;52.836;6.376;2023-07-13T12:45:05;2.67;;;1.00;;
55455;SDS011;63021;52.836;6.376;2023-07-13T12:47:43;2.50;;;1.02;;
55455;SDS011;63021;52.836;6.376;2023-07-13T12:50:15;6.90;;;1.30;;
55455;SDS011;63021;52.836;6.376;2023-07-13T12:55:20;3.60;;;1.00;;
55455;SDS011;63021;52.836;6.376;2023-07-13T12:57:53;2.17;;;1.20;;
55455;SDS011;63021;52.836;6.376;2023-07-13T13:00:28;5.03;;;1.30;;
55455;SDS011;63021;52.836;6.376;2023-07-13T13:02:58;2.83;;;1.58;;
55455;SDS011;63021;52.836;6.376;2023-07-13T13:05:28;3.65;;;1.05;;
55455;SDS011;63021;52.836;6.376;2023-07-13T13:07:55;1.45;;;1.05;;
55455;SDS011;63021;52.836;6.376;2023-07-13T13:10:21;4.25;;;1.17;;
55455;SDS011;63021;52.836;6.376;2023-07-13T13:12:46;3.05;;;1.20;;
55455;SDS011;63021;52.836;6.376;2023-07-13T13:15:12;5.53;;;1.15;;
55455;SDS011;63021;52.836;6.376;2023-07-13T13:17:38;1.50;;;1.05;;
55455;SDS011;63021;52.836;6.376;2023-07-13T13:20:14;1.55;;;1.13;;
55455;SDS011;63021;52.836;6.376;2023-07-13T13:22:42;3.95;;;1.80;;
55455;SDS011;63021;52.836;6.376;2023-07-13T13:25:14;6.78;;;1.20;;
55455;SDS011;63021;52.836;6.376;2023-07-13T13:27:40;1.08;;;0.70;;
55455;SDS011;63021;52.836;6.376;2023-07-13T13:30:10;2.80;;;1.15;;
55455;SDS011;63021;52.836;6.376;2023-07-13T13:32:41;0.95;;;0.73;;
55455;SDS011;63021;52.836;6.376;2023-07-13T13:35:14;1.83;;;1.00;;
55455;SDS011;63021;52.836;6.376;2023-07-13T13:37:42;2.90;;;0.93;;
55455;SDS011;63021;52.836;6.376;2023-07-13T13:40:18;2.20;;;1.00;;
55455;SDS011;63021;52.836;6.376;2023-07-13T13:42:46;2.35;;;0.80;;
55455;SDS011;63021;52.836;6.376;2023-07-13T13:45:12;3.03;;;1.10;;
55455;SDS011;63021;52.836;6.376;2023-07-13T13:47:38;3.25;;;1.35;;
55455;SDS011;63021;52.836;6.376;2023-07-13T13:52:37;2.78;;;1.40;;
55455;SDS011;63021;52.836;6.376;2023-07-13T13:55:04;4.78;;;1.20;;
55455;SDS011;63021;52.836;6.376;2023-07-13T13:57:36;5.75;;;1.30;;
55455;SDS011;63021;52.836;6.376;2023-07-13T14:00:02;3.55;;;1.25;;
55455;SDS011;63021;52.836;6.376;2023-07-13T14:02:28;2.10;;;1.10;;
55455;SDS011;63021;52.836;6.376;2023-07-13T14:04:57;3.13;;;1.30;;
55455;SDS011;63021;52.836;6.376;2023-07-13T14:07:25;5.45;;;1.20;;
55455;SDS011;63021;52.836;6.376;2023-07-13T14:09:52;3.90;;;1.50;;
55455;SDS011;63021;52.836;6.376;2023-07-13T14:12:20;5.13;;;1.23;;
55455;SDS011;63021;52.836;6.376;2023-07-13T14:14:46;7.85;;;1.60;;
55455;SDS011;63021;52.836;6.376;2023-07-13T14:17:19;8.65;;;2.47;;
55455;SDS011;63021;52.836;6.376;2023-07-13T14:19:47;1.75;;;1.23;;
55455;SDS011;63021;52.836;6.376;2023-07-13T14:22:16;7.57;;;1.90;;
55455;SDS011;63021;52.836;6.376;2023-07-13T14:24:42;5.20;;;1.38;;
55455;SDS011;63021;52.836;6.376;2023-07-13T14:27:09;3.90;;;1.20;;
55455;SDS011;63021;52.836;6.376;2023-07-13T14:29:37;2.78;;;1.10;;
55455;SDS011;63021;52.836;6.376;2023-07-13T14:32:02;3.78;;;1.10;;
55455;SDS011;63021;52.836;6.376;2023-07-13T14:34:29;3.30;;;1.50;;
55455;SDS011;63021;52.836;6.376;2023-07-13T14:36:55;2.92;;;1.40;;
55455;SDS011;63021;52.836;6.376;2023-07-13T14:39:21;4.13;;;1.40;;
55455;SDS011;63021;52.836;6.376;2023-07-13T14:41:52;2.25;;;1.27;;
55455;SDS011;63021;52.836;6.376;2023-07-13T14:44:22;5.45;;;2.30;;
55455;SDS011;63021;52.836;6.376;2023-07-13T14:46:51;4.50;;;1.40;;
55455;SDS011;63021;52.836;6.376;2023-07-13T14:49:30;2.90;;;1.40;;
55455;SDS011;63021;52.836;6.376;2023-07-13T14:51:59;7.90;;;1.63;;
55455;SDS011;63021;52.836;6.376;2023-07-13T14:54:27;4.65;;;1.50;;
55455;SDS011;63021;52.836;6.376;2023-07-13T14:56:52;2.17;;;1.35;;
55455;SDS011;63021;52.836;6.376;2023-07-13T14:59:18;3.15;;;1.38;;
55455;SDS011;63021;52.836;6.376;2023-07-13T15:01:47;5.35;;;1.20;;
55455;SDS011;63021;52.836;6.376;2023-07-13T15:04:14;3.95;;;1.25;;
55455;SDS011;63021;52.836;6.376;2023-07-13T15:06:54;4.45;;;1.30;;
55455;SDS011;63021;52.836;6.376;2023-07-13T15:09:28;2.08;;;0.80;;
55455;SDS011;63021;52.836;6.376;2023-07-13T15:11:57;2.53;;;1.30;;
55455;SDS011;63021;52.836;6.376;2023-07-13T15:14:23;6.47;;;1.05;;
55455;SDS011;63021;52.836;6.376;2023-07-13T15:16:51;4.25;;;1.33;;
55455;SDS011;63021;52.836;6.376;2023-07-13T15:19:18;3.63;;;1.25;;
55455;SDS011;63021;52.836;6.376;2023-07-13T15:21:44;4.00;;;1.00;;
55455;SDS011;63021;52.836;6.376;2023-07-13T15:24:10;3.40;;;1.33;;
55455;SDS011;63021;52.836;6.376;2023-07-13T15:26:36;2.85;;;1.20;;
55455;SDS011;63021;52.836;6.376;2023-07-13T15:29:02;2.47;;;1.00;;